Time;durP1;ratioP1;P1;durP2;ratioP2;P2;SDS_P1;SDS_P2;PMS_P1;PMS_P2;Temp;Humidity;BMP_temperature;BMP_pressure;BME280_temperature;BME280_humidity;BME280_pressure;Samples;Min_cycle;Max_cycle;Signal;HPM_P1;HPM_P2
2023/03/17 00:01:50;;;;;;;8.55;5.85;;;3.30;99.90;;;;;;5113171;28;20070;-65
2023/03/17 00:04:18;;;;;;;9.60;6.23;;;3.30;99.90;;;;;;5113136;28;20039;-66
2023/03/17 00:06:46;;;;;;;8.15;5.63;;;3.30;99.90;;;;;;5112762;28;20354;-66
2023/03/17 00:09:15;;;;;;;8.95;6.05;;;3.30;99.90;;;;;;5113341;28;20040;-65
2023/03/17 00:11:44;;;;;;;6.63;4.93;;;3.30;99.90;;;;;;5094651;28;20078;-65
2023/03/17 00:14:12;;;;;;;6.97;5.30;;;3.30;99.90;;;;;;5112613;28;20105;-65
2023/03/17 00:16:41;;;;;;;8.02;5.30;;;3.30;99.90;;;;;;5112850;28;20050;-67
2023/03/17 00:19:17;;;;;;;7.07;5.15;;;3.30;99.90;;;;;;5112836;28;20059;-65
2023/03/17 00:21:45;;;;;;;8.43;5.32;;;3.30;99.90;;;;;;5111898;28;20038;-65
2023/03/17 00:24:13;;;;;;;6.72;5.25;;;3.30;99.90;;;;;;5112685;28;20043;-65
2023/03/17 00:26:42;;;;;;;7.43;5.35;;;3.30;99.90;;;;;;5112674;28;20395;-67
2023/03/17 00:29:09;;;;;;;6.63;4.90;;;3.40;99.90;;;;;;5094191;28;20039;-65
2023/03/17 00:31:38;;;;;;;8.00;5.20;;;3.40;99.90;;;;;;5112698;28;20512;-65
2023/03/17 00:34:06;;;;;;;8.48;5.28;;;3.30;99.90;;;;;;5081789;28;20055;-65
2023/03/17 00:36:34;;;;;;;6.40;5.00;;;3.40;99.90;;;;;;5102486;28;20122;-66
2023/03/17 00:39:05;;;;;;;7.05;5.10;;;3.40;99.90;;;;;;5094382;28;20046;-65
2023/03/17 00:41:33;;;;;;;6.97;5.45;;;3.50;99.90;;;;;;5094439;28;20031;-65
2023/03/17 00:44:00;;;;;;;6.47;5.50;;;3.50;99.90;;;;;;5112029;28;20044;-64
2023/03/17 00:46:34;;;;;;;6.40;5.20;;;3.50;99.90;;;;;;5080520;28;20040;-65
2023/03/17 00:49:09;;;;;;;6.20;5.20;;;3.50;99.90;;;;;;5085412;28;20409;-66
2023/03/17 00:51:39;;;;;;;7.07;5.18;;;3.60;99.90;;;;;;5101575;28;20050;-65
2023/03/17 00:54:09;;;;;;;7.28;5.10;;;3.60;99.90;;;;;;5091674;28;20040;-66
2023/03/17 00:56:38;;;;;;;8.57;4.80;;;3.60;99.90;;;;;;5106436;28;20043;-65
2023/03/17 00:59:16;;;;;;;5.63;4.90;;;3.60;99.90;;;;;;5099508;28;20074;-66
2023/03/17 01:01:46;;;;;;;7.68;5.07;;;3.60;99.90;;;;;;5098966;28;20130;-66
2023/03/17 01:04:14;;;;;;;9.23;4.72;;;3.60;99.90;;;;;;5112195;28;20466;-66
2023/03/17 01:06:42;;;;;;;7.53;4.93;;;3.60;99.90;;;;;;5073621;28;20054;-66
2023/03/17 01:09:18;;;;;;;7.75;5.03;;;3.60;99.90;;;;;;5108820;28;20036;-66
2023/03/17 01:11:45;;;;;;;5.85;4.60;;;3.60;99.90;;;;;;5105705;28;20112;-65
2023/03/17 01:14:15;;;;;;;5.68;4.50;;;3.60;99.90;;;;;;5076970;28;20064;-65
2023/03/17 01:16:43;;;;;;;6.40;4.88;;;3.60;99.90;;;;;;5093514;28;20115;-65
2023/03/17 01:19:12;;;;;;;7.10;4.32;;;3.60;99.90;;;;;;5091923;28;20556;-65
2023/03/17 01:21:41;;;;;;;7.18;4.90;;;3.60;99.90;;;;;;5100490;28;20036;-66
2023/03/17 01:24:09;;;;;;;5.50;4.50;;;3.60;99.90;;;;;;5093650;28;20031;-66
2023/03/17 01:26:37;;;;;;;6.53;4.95;;;3.60;99.90;;;;;;5076810;28;20097;-66
2023/03/17 01:29:06;;;;;;;7.13;4.80;;;3.60;99.90;;;;;;5093517;28;20383;-67
2023/03/17 01:31:35;;;;;;;5.50;4.50;;;3.60;99.90;;;;;;5111654;28;20176;-66
2023/03/17 01:34:05;;;;;;;10.65;6.82;;;3.60;99.90;;;;;;5092421;28;20036;-65
2023/03/17 01:36:33;;;;;;;15.43;9.27;;;3.50;99.90;;;;;;5080272;28;20465;-65
2023/03/17 01:39:00;;;;;;;10.60;7.30;;;3.50;99.90;;;;;;5074295;28;20043;-66
2023/03/17 01:41:31;;;;;;;8.88;5.57;;;3.50;99.90;;;;;;5111496;28;20039;-66
2023/03/17 01:43:58;;;;;;;7.07;4.90;;;3.50;99.90;;;;;;5107714;28;20039;-66
2023/03/17 01:46:34;;;;;;;6.60;5.32;;;3.50;99.90;;;;;;5082083;28;20064;-66
2023/03/17 01:49:16;;;;;;;8.43;5.25;;;3.50;99.90;;;;;;5088549;28;20043;-65
2023/03/17 01:51:52;;;;;;;;;;;3.40;99.90;;;;;;5071170;28;20131;-65
2023/03/17 01:54:25;;;;;;;6.93;5.15;;;3.40;99.90;;;;;;5089326;28;19920;-65
2023/03/17 01:56:56;;;;;;;7.00;5.38;;;3.40;99.90;;;;;;5089161;28;20048;-66
2023/03/17 01:59:30;;;;;;;9.52;5.60;;;3.40;99.90;;;;;;5065486;28;20089;-65
2023/03/17 02:02:02;;;;;;;6.68;4.88;;;3.40;99.90;;;;;;5105461;28;20101;-65
2023/03/17 02:04:30;;;;;;;;;;;3.30;99.90;;;;;;5089712;28;20036;-65
2023/03/17 02:06:57;;;;;;;6.22;4.65;;;3.30;99.90;;;;;;5086068;28;20389;-66
2023/03/17 02:09:26;;;;;;;9.20;5.32;;;3.30;99.90;;;;;;5073789;28;20074;-66
2023/03/17 02:11:55;;;;;;;6.38;5.10;;;3.30;99.90;;;;;;5093437;28;20395;-66
2023/03/17 02:14:23;;;;;;;7.38;5.25;;;3.30;99.90;;;;;;5100817;28;20039;-66
2023/03/17 02:16:50;;;;;;;8.23;5.38;;;3.30;99.90;;;;;;5072222;28;20039;-66
2023/03/17 02:19:17;;;;;;;8.35;5.05;;;3.30;99.90;;;;;;5075745;28;20506;-65
2023/03/17 02:21:46;;;;;;;6.38;5.30;;;3.30;99.90;;;;;;5110195;28;20031;-66
2023/03/17 02:24:37;;;;;;;6.47;5.13;;;3.30;99.90;;;;;;5090321;28;20134;-65
2023/03/17 02:27:34;;;;;;;7.45;4.93;;;3.30;99.90;;;;;;5089345;28;20054;-65
2023/03/17 02:30:05;;;;;;;6.53;4.97;;;3.30;99.90;;;;;;5084330;28;20046;-66
2023/03/17 02:32:35;;;;;;;7.28;5.30;;;3.40;99.90;;;;;;5089867;28;20042;-65
2023/03/17 02:35:03;;;;;;;7.82;5.40;;;3.40;99.90;;;;;;5087759;28;20067;-65
2023/03/17 02:37:31;;;;;;;9.05;5.13;;;3.50;99.90;;;;;;5070288;28;20040;-67
2023/03/17 02:40:00;;;;;;;7.63;5.13;;;3.50;99.90;;;;;;5088524;28;20137;-65
2023/03/17 02:42:29;;;;;;;6.18;4.82;;;3.50;99.90;;;;;;5089335;28;20048;-66
2023/03/17 02:44:58;;;;;;;8.88;5.28;;;3.40;99.90;;;;;;5072006;28;20040;-66
2023/03/17 02:47:26;;;;;;;7.38;5.35;;;3.50;99.90;;;;;;5090060;28;20426;-66
2023/03/17 02:49:54;;;;;;;7.47;4.40;;;3.40;99.90;;;;;;5090282;28;20048;-66
2023/03/17 02:52:21;;;;;;;6.75;5.00;;;3.40;99.90;;;;;;5089030;28;20574;-66
2023/03/17 02:54:49;;;;;;;5.72;4.82;;;3.40;99.90;;;;;;5090632;28;20100;-65
2023/03/17 02:57:16;;;;;;;7.30;4.47;;;3.40;99.90;;;;;;5088768;28;20481;-65
2023/03/17 02:59:43;;;;;;;5.85;4.38;;;3.40;99.90;;;;;;5087529;28;20482;-65
2023/03/17 03:02:10;;;;;;;8.52;5.28;;;3.50;99.90;;;;;;5089061;28;20044;-67
2023/03/17 03:04:38;;;;;;;9.63;4.60;;;3.50;99.90;;;;;;5074175;28;20137;-67
2023/03/17 03:07:06;;;;;;;7.28;4.55;;;3.40;99.90;;;;;;5090673;28;20288;-67
2023/03/17 03:09:33;;;;;;;9.18;4.60;;;3.40;99.90;;;;;;5093270;28;20039;-67
2023/03/17 03:12:01;;;;;;;8.20;4.85;;;3.40;99.90;;;;;;5101747;28;20040;-68
2023/03/17 03:14:28;;;;;;;6.63;4.55;;;3.30;99.90;;;;;;5094277;28;20070;-67
2023/03/17 03:16:55;;;;;;;7.38;4.80;;;3.30;99.90;;;;;;5088901;28;20719;-67
2023/03/17 03:19:23;;;;;;;5.55;4.32;;;3.30;99.90;;;;;;5098180;28;20036;-67
2023/03/17 03:21:50;;;;;;;6.50;4.68;;;3.30;99.90;;;;;;5114084;28;20085;-67
2023/03/17 03:24:17;;;;;;;7.85;4.50;;;3.30;99.90;;;;;;5088508;28;20484;-67
2023/03/17 03:26:44;;;;;;;6.20;4.97;;;3.20;99.90;;;;;;5092570;28;20047;-67
2023/03/17 03:29:12;;;;;;;6.93;4.40;;;3.20;99.90;;;;;;5092313;28;20051;-67
2023/03/17 03:31:39;;;;;;;5.97;4.95;;;3.20;99.90;;;;;;5093426;28;20043;-68
2023/03/17 03:34:06;;;;;;;6.93;4.80;;;3.20;99.90;;;;;;5093300;28;20044;-68
2023/03/17 03:36:34;;;;;;;6.65;4.60;;;3.10;99.90;;;;;;5093274;28;20524;-67
2023/03/17 03:39:02;;;;;;;8.25;5.25;;;3.10;99.90;;;;;;5091911;28;20051;-68
2023/03/17 03:41:29;;;;;;;6.72;4.82;;;3.20;99.90;;;;;;5091412;28;20474;-68
2023/03/17 03:43:56;;;;;;;9.18;5.00;;;3.10;99.90;;;;;;5075627;28;20124;-68
2023/03/17 03:46:25;;;;;;;10.18;4.95;;;3.10;99.90;;;;;;5075038;28;20067;-69
2023/03/17 03:48:53;;;;;;;7.25;5.32;;;3.10;99.90;;;;;;5074439;28;20055;-68
2023/03/17 03:51:20;;;;;;;10.27;5.28;;;3.10;99.90;;;;;;5074911;28;20087;-69
2023/03/17 03:53:48;;;;;;;7.43;6.03;;;3.00;99.90;;;;;;5091152;28;20040;-67
2023/03/17 03:56:15;;;;;;;7.40;5.60;;;3.10;99.90;;;;;;5093735;28;20502;-69
2023/03/17 03:58:42;;;;;;;7.10;5.38;;;3.10;99.90;;;;;;5091821;28;20105;-68
2023/03/17 04:01:10;;;;;;;6.90;5.38;;;3.10;99.90;;;;;;5093111;28;20380;-68
2023/03/17 04:03:38;;;;;;;9.73;5.95;;;3.10;99.90;;;;;;5074130;28;20470;-67
2023/03/17 04:06:05;;;;;;;11.35;6.18;;;3.10;99.90;;;;;;5100371;28;20036;-69
2023/03/17 04:08:32;;;;;;;8.00;5.63;;;3.10;99.90;;;;;;5084904;28;20059;-67
2023/03/17 04:11:00;;;;;;;9.15;6.47;;;3.10;99.90;;;;;;5093083;28;20541;-67
2023/03/17 04:13:27;;;;;;;8.10;5.88;;;3.10;99.90;;;;;;5106738;28;20040;-68
2023/03/17 04:15:55;;;;;;;10.00;6.20;;;3.10;99.90;;;;;;5091278;28;20524;-68
2023/03/17 04:18:22;;;;;;;11.10;5.63;;;3.10;99.90;;;;;;5091398;28;20454;-68
2023/03/17 04:20:50;;;;;;;9.30;5.80;;;3.00;99.90;;;;;;5109201;28;20050;-67
2023/03/17 04:23:17;;;;;;;7.53;5.65;;;3.00;99.90;;;;;;5104807;28;20411;-68
2023/03/17 04:25:45;;;;;;;10.90;5.40;;;2.90;99.90;;;;;;5077749;28;20466;-66
2023/03/17 04:28:13;;;;;;;7.22;5.43;;;2.90;99.90;;;;;;5111779;28;20051;-67
2023/03/17 04:30:40;;;;;;;9.05;5.05;;;2.90;99.90;;;;;;5074463;28;20048;-68
2023/03/17 04:33:07;;;;;;;7.28;5.72;;;2.90;99.90;;;;;;5091032;28;20051;-67
2023/03/17 04:35:35;;;;;;;8.80;5.38;;;2.90;99.90;;;;;;5107374;28;20074;-67
2023/03/17 04:38:02;;;;;;;8.25;5.13;;;2.90;99.90;;;;;;5093906;28;20067;-67
2023/03/17 04:40:30;;;;;;;7.63;5.30;;;2.90;99.90;;;;;;5110725;28;20047;-66
2023/03/17 04:42:58;;;;;;;6.80;5.40;;;2.90;99.90;;;;;;5099154;28;20044;-67
2023/03/17 04:45:27;;;;;;;6.72;5.38;;;2.90;99.90;;;;;;5091469;28;20043;-67
2023/03/17 04:47:54;;;;;;;6.40;5.10;;;2.90;99.90;;;;;;5091058;28;20051;-65
2023/03/17 04:50:22;;;;;;;6.10;4.93;;;2.90;99.90;;;;;;5105745;28;20521;-65
2023/03/17 04:52:49;;;;;;;7.55;5.50;;;2.90;99.90;;;;;;5111026;28;20048;-64
2023/03/17 04:55:16;;;;;;;8.32;5.35;;;3.00;99.90;;;;;;5085363;28;20522;-65
2023/03/17 04:57:44;;;;;;;6.40;5.38;;;2.90;99.90;;;;;;5102076;28;20051;-65
2023/03/17 05:00:11;;;;;;;7.75;5.07;;;2.90;99.90;;;;;;5101665;28;20419;-65
2023/03/17 05:02:39;;;;;;;6.53;5.07;;;2.90;99.90;;;;;;5091389;28;20116;-65
2023/03/17 05:05:07;;;;;;;7.60;5.57;;;2.90;99.90;;;;;;5073003;28;20375;-65
2023/03/17 05:07:34;;;;;;;9.30;5.30;;;2.90;99.90;;;;;;5103213;28;20476;-65
2023/03/17 05:10:03;;;;;;;6.43;5.13;;;2.80;99.90;;;;;;5087932;28;20036;-65
2023/03/17 05:12:30;;;;;;;8.90;5.47;;;2.80;99.90;;;;;;5088445;28;20040;-65
2023/03/17 05:14:57;;;;;;;9.68;5.20;;;2.80;99.90;;;;;;5098304;28;20075;-65
2023/03/17 05:17:25;;;;;;;7.97;5.60;;;2.70;99.90;;;;;;5110422;28;20039;-66
2023/03/17 05:19:52;;;;;;;9.32;6.63;;;2.70;99.90;;;;;;5104687;28;20486;-65
2023/03/17 05:22:19;;;;;;;9.55;6.18;;;2.70;99.90;;;;;;5110882;28;20428;-65
2023/03/17 05:24:47;;;;;;;7.40;5.80;;;2.70;99.90;;;;;;5096213;28;20135;-65
2023/03/17 05:27:14;;;;;;;10.82;6.32;;;2.60;99.90;;;;;;5091339;28;20502;-65
2023/03/17 05:29:41;;;;;;;10.68;7.22;;;2.60;99.90;;;;;;5089087;28;20529;-65
2023/03/17 05:32:09;;;;;;;9.25;6.57;;;2.50;99.90;;;;;;5090799;28;20044;-64
2023/03/17 05:34:36;;;;;;;11.40;5.80;;;2.50;99.90;;;;;;5088494;28;20489;-66
2023/03/17 05:37:03;;;;;;;7.60;5.35;;;2.50;99.90;;;;;;5090166;28;20058;-65
2023/03/17 05:39:31;;;;;;;10.95;5.28;;;2.50;99.90;;;;;;5089306;28;20102;-65
2023/03/17 05:41:59;;;;;;;8.85;5.38;;;2.40;99.90;;;;;;5071718;28;20059;-65
2023/03/17 05:44:26;;;;;;;9.40;5.10;;;2.40;99.90;;;;;;5090030;28;20027;-66
2023/03/17 05:46:54;;;;;;;7.88;5.07;;;2.50;99.90;;;;;;5094097;28;20127;-66
2023/03/17 05:49:23;;;;;;;6.40;4.93;;;2.40;99.90;;;;;;5094641;28;20050;-66
2023/03/17 05:51:50;;;;;;;8.02;5.60;;;2.50;99.90;;;;;;5088088;28;20051;-65
2023/03/17 05:54:17;;;;;;;6.43;4.95;;;2.50;99.90;;;;;;5071595;28;20267;-65
2023/03/17 05:56:45;;;;;;;9.23;5.72;;;2.50;99.90;;;;;;5071493;28;20044;-66
2023/03/17 05:59:17;;;;;;;9.75;6.03;;;2.60;99.90;;;;;;5073649;28;20337;-66
2023/03/17 06:01:44;;;;;;;8.68;5.60;;;2.60;99.90;;;;;;5107877;28;20490;-66
2023/03/17 06:04:13;;;;;;;7.80;5.65;;;2.70;99.90;;;;;;5099350;28;20529;-65
2023/03/17 06:06:40;;;;;;;9.07;5.32;;;2.70;99.90;;;;;;5082849;28;20047;-65
2023/03/17 06:09:08;;;;;;;10.30;5.82;;;2.80;99.90;;;;;;5104868;28;20066;-64
2023/03/17 06:11:35;;;;;;;9.63;5.72;;;2.80;99.90;;;;;;5111238;28;20044;-65
2023/03/17 06:14:03;;;;;;;10.32;5.90;;;2.90;99.90;;;;;;5109569;28;20093;-65
2023/03/17 06:16:32;;;;;;;9.32;6.45;;;3.00;99.90;;;;;;5105461;28;20081;-65
2023/03/17 06:18:59;;;;;;;8.20;6.10;;;3.00;99.90;;;;;;5105895;28;20040;-65
2023/03/17 06:21:27;;;;;;;9.82;6.13;;;3.10;99.90;;;;;;5105901;28;20567;-65
2023/03/17 06:23:54;;;;;;;8.98;6.72;;;3.10;99.90;;;;;;5111507;28;20040;-65
2023/03/17 06:26:22;;;;;;;9.57;6.75;;;3.20;99.90;;;;;;5097957;28;20035;-64
2023/03/17 06:28:49;;;;;;;11.07;6.35;;;3.30;99.90;;;;;;5096034;28;20040;-64
2023/03/17 06:31:16;;;;;;;13.65;6.40;;;3.40;99.90;;;;;;5110750;28;20050;-64
2023/03/17 06:33:44;;;;;;;12.63;7.35;;;3.40;99.90;;;;;;5101863;28;20135;-64
2023/03/17 06:36:11;;;;;;;12.93;6.97;;;3.50;99.90;;;;;;5100011;28;20064;-66
2023/03/17 06:38:38;;;;;;;10.50;7.15;;;3.60;99.90;;;;;;5110628;28;20512;-64
2023/03/17 06:41:06;;;;;;;12.52;6.93;;;3.70;99.90;;;;;;5093192;28;20123;-64
2023/03/17 06:43:34;;;;;;;15.90;7.47;;;3.80;99.90;;;;;;5106893;28;20051;-64
2023/03/17 06:46:02;;;;;;;11.20;6.90;;;3.90;99.90;;;;;;5109937;28;20469;-64
2023/03/17 06:48:29;;;;;;;16.58;5.97;;;4.00;99.90;;;;;;5102321;28;20413;-65
2023/03/17 06:50:56;;;;;;;9.02;5.72;;;4.00;99.90;;;;;;5102618;28;20071;-64
2023/03/17 06:53:23;;;;;;;6.28;5.20;;;4.10;99.90;;;;;;5102743;28;20165;-65
2023/03/17 06:55:51;;;;;;;6.63;5.28;;;4.10;99.90;;;;;;5114700;28;20074;-65
2023/03/17 06:58:19;;;;;;;7.43;4.90;;;4.20;99.90;;;;;;5107561;28;20134;-65
2023/03/17 07:00:47;;;;;;;9.35;5.15;;;4.20;99.90;;;;;;5114578;28;20084;-65
2023/03/17 07:03:15;;;;;;;12.35;5.50;;;4.20;99.90;;;;;;5114529;28;20100;-65
2023/03/17 07:05:43;;;;;;;8.05;5.10;;;4.20;99.90;;;;;;5113194;28;20433;-65
2023/03/17 07:08:10;;;;;;;6.80;5.43;;;4.30;99.90;;;;;;5102614;28;20048;-64
2023/03/17 07:10:41;;;;;;;8.95;5.45;;;4.40;99.90;;;;;;5099941;28;20531;-64
2023/03/17 07:13:09;;;;;;;12.10;5.63;;;4.50;99.90;;;;;;5112307;28;20032;-64
2023/03/17 07:15:36;;;;;;;9.18;5.68;;;4.60;99.90;;;;;;5114357;28;20405;-64
2023/03/17 07:18:05;;;;;;;13.82;9.55;;;4.60;99.90;;;;;;5095597;28;20461;-64
2023/03/17 07:20:33;;;;;;;8.50;6.25;;;4.70;99.90;;;;;;5112304;28;20044;-64
2023/03/17 07:23:00;;;;;;;9.18;5.78;;;4.80;99.90;;;;;;5110418;28;20043;-65
2023/03/17 07:25:28;;;;;;;15.45;6.25;;;4.90;99.90;;;;;;5105759;28;20075;-65
2023/03/17 07:27:57;;;;;;;12.70;6.80;;;5.00;99.90;;;;;;5090955;28;20043;-65
2023/03/17 07:30:25;;;;;;;8.32;6.18;;;5.20;99.90;;;;;;5112105;28;20047;-65
2023/03/17 07:32:53;;;;;;;11.55;6.13;;;5.30;99.90;;;;;;5106577;28;20070;-65
2023/03/17 07:35:21;;;;;;;14.02;7.03;;;5.40;99.90;;;;;;5113394;28;20092;-65
2023/03/17 07:37:48;;;;;;;13.10;7.05;;;5.40;99.90;;;;;;5111002;28;20097;-63
2023/03/17 07:40:18;;;;;;;10.82;7.13;;;5.60;99.90;;;;;;5107819;28;20032;-65
2023/03/17 07:42:46;;;;;;;9.25;6.55;;;5.80;99.90;;;;;;5111742;28;20061;-65
2023/03/17 07:45:13;;;;;;;9.23;6.88;;;5.90;99.90;;;;;;5085502;28;20059;-65
2023/03/17 07:47:41;;;;;;;11.38;6.90;;;6.00;99.90;;;;;;5103127;28;20055;-65
2023/03/17 07:50:09;;;;;;;13.93;7.18;;;6.20;99.90;;;;;;5113342;28;20039;-63
2023/03/17 07:52:37;;;;;;;10.93;7.20;;;6.40;99.90;;;;;;5111401;28;20039;-64
2023/03/17 07:55:09;;;;;;;12.25;6.80;;;6.50;99.90;;;;;;5111264;28;20417;-65
2023/03/17 07:57:38;;;;;;;12.80;6.97;;;6.70;99.90;;;;;;5090572;28;20040;-65
2023/03/17 08:00:12;;;;;;;10.55;7.40;;;6.90;99.90;;;;;;5109380;28;20045;-64
2023/03/17 08:02:39;;;;;;;13.63;7.47;;;7.10;99.90;;;;;;5091403;28;20040;-64
2023/03/17 08:05:10;;;;;;;11.32;7.20;;;7.10;99.90;;;;;;5092853;28;20090;-65
2023/03/17 08:07:39;;;;;;;11.80;6.82;;;7.20;99.90;;;;;;5110675;28;20413;-65
2023/03/17 08:10:11;;;;;;;10.30;6.68;;;7.40;99.90;;;;;;5111385;28;20485;-65
2023/03/17 08:12:40;;;;;;;13.55;7.65;;;7.50;99.90;;;;;;5109126;28;20441;-66
2023/03/17 08:15:08;;;;;;;8.25;6.30;;;7.60;99.90;;;;;;5110840;28;20071;-66
2023/03/17 08:17:36;;;;;;;9.82;6.40;;;7.80;99.90;;;;;;5111516;28;20525;-66
2023/03/17 08:20:04;;;;;;;10.05;5.68;;;8.00;99.90;;;;;;5100201;28;20043;-64
2023/03/17 08:22:31;;;;;;;7.97;5.90;;;8.20;99.90;;;;;;5098998;28;20052;-64
2023/03/17 08:25:01;;;;;;;10.00;7.65;;;8.30;99.90;;;;;;5091508;28;20044;-63
2023/03/17 08:27:30;;;;;;;8.20;5.80;;;8.40;99.90;;;;;;5092290;28;20135;-62
2023/03/17 08:30:02;;;;;;;10.63;5.20;;;8.40;99.90;;;;;;5091340;28;20128;-62
2023/03/17 08:32:32;;;;;;;;;;;8.60;99.90;;;;;;5081987;28;20047;-63
2023/03/17 08:35:01;;;;;;;14.98;7.50;;;8.70;99.90;;;;;;5110806;28;20293;-63
2023/03/17 08:37:34;;;;;;;12.52;7.43;;;8.90;99.90;;;;;;5077546;28;20370;-62
2023/03/17 08:40:04;;;;;;;7.57;5.55;;;8.90;99.90;;;;;;5112181;28;20565;-63
2023/03/17 08:42:32;;;;;;;7.93;5.32;;;9.00;99.90;;;;;;5110726;28;20139;-62
2023/03/17 08:44:59;;;;;;;6.63;5.68;;;9.10;99.90;;;;;;5093354;28;20039;-62
2023/03/17 08:47:27;;;;;;;13.27;6.88;;;9.20;99.90;;;;;;5061059;28;20048;-65
2023/03/17 08:49:55;;;;;;;8.57;5.53;;;9.30;99.90;;;;;;5089614;28;20044;-66
2023/03/17 08:52:22;;;;;;;8.70;5.43;;;9.50;99.90;;;;;;5090144;28;20068;-66
2023/03/17 08:54:49;;;;;;;6.43;4.68;;;9.50;99.90;;;;;;5072807;28;20077;-67
2023/03/17 08:57:18;;;;;;;6.15;4.70;;;9.60;99.90;;;;;;5091197;28;20048;-66
2023/03/17 08:59:46;;;;;;;6.05;5.00;;;9.80;99.90;;;;;;5078694;28;20051;-67
2023/03/17 09:02:14;;;;;;;5.38;4.72;;;10.00;99.90;;;;;;5094036;28;20070;-68
2023/03/17 09:04:42;;;;;;;6.22;4.50;;;10.10;99.90;;;;;;5091915;28;20044;-67
2023/03/17 09:07:09;;;;;;;5.22;4.13;;;10.30;99.90;;;;;;5092174;28;20509;-66
2023/03/17 09:09:36;;;;;;;8.77;6.32;;;10.40;99.90;;;;;;5089825;28;20040;-66
2023/03/17 09:12:05;;;;;;;10.25;6.55;;;10.60;99.90;;;;;;5089295;28;20051;-67
2023/03/17 09:14:33;;;;;;;7.00;4.50;;;10.70;99.90;;;;;;5071561;28;20449;-67
2023/03/17 09:17:10;;;;;;;7.22;4.45;;;10.70;99.90;;;;;;5090524;28;20532;-68
2023/03/17 09:19:37;;;;;;;5.25;4.30;;;10.80;99.90;;;;;;5070187;28;20119;-68
2023/03/17 09:22:05;;;;;;;5.25;4.55;;;10.80;99.90;;;;;;5075803;28;20039;-68
2023/03/17 09:24:32;;;;;;;6.18;4.68;;;10.90;99.90;;;;;;5104728;28;20365;-69
2023/03/17 09:27:00;;;;;;;6.55;4.50;;;11.00;99.90;;;;;;5109279;28;20554;-67
2023/03/17 09:29:27;;;;;;;6.18;4.45;;;11.10;99.90;;;;;;5109602;28;20400;-68
2023/03/17 09:31:57;;;;;;;5.18;4.68;;;11.20;99.90;;;;;;5098936;28;20040;-69
2023/03/17 09:34:25;;;;;;;5.75;4.57;;;11.40;99.90;;;;;;5101815;28;20068;-69
2023/03/17 09:36:53;;;;;;;5.03;4.07;;;11.50;99.90;;;;;;5102074;28;20044;-69
2023/03/17 09:39:21;;;;;;;8.10;4.25;;;11.60;99.90;;;;;;5090183;28;20509;-67
2023/03/17 09:42:18;;;;;;;5.43;4.20;;;11.70;99.90;;;;;;5105368;28;20040;-70
2023/03/17 09:45:00;;;;;;;5.00;4.43;;;12.00;99.90;;;;;;5076704;28;20517;-70
2023/03/17 09:47:51;;;;;;;5.93;4.35;;;12.20;99.90;;;;;;5071883;28;20478;-71
2023/03/17 09:50:24;;;;;;;8.85;4.03;;;12.30;99.90;;;;;;5079194;28;20044;-66
2023/03/17 09:52:54;;;;;;;7.65;4.75;;;12.50;99.90;;;;;;5102855;28;20046;-68
2023/03/17 09:55:28;;;;;;;5.35;4.78;;;12.50;99.90;;;;;;5084881;28;20050;-70
2023/03/17 09:57:57;;;;;;;6.35;4.78;;;12.60;99.90;;;;;;5108544;28;20059;-68
2023/03/17 10:00:28;;;;;;;7.25;4.43;;;12.80;99.90;;;;;;5103833;28;20538;-70
2023/03/17 10:02:56;;;;;;;5.22;3.97;;;13.00;99.90;;;;;;5110487;28;20103;-69
2023/03/17 10:05:30;;;;;;;7.10;4.60;;;13.20;99.90;;;;;;5108581;28;20043;-68
2023/03/17 10:08:24;;;;;;;7.10;5.15;;;13.40;99.90;;;;;;5089628;28;20111;-69
2023/03/17 10:11:23;;;;;;;11.20;7.20;;;13.60;99.90;;;;;;5101673;28;20494;-69
2023/03/17 10:14:07;;;;;;;5.68;5.00;;;13.80;99.90;;;;;;5102439;28;20039;-67
2023/03/17 10:16:53;;;;;;;5.93;5.20;;;13.90;99.50;;;;;;5087876;28;20047;-69
2023/03/17 10:19:39;;;;;;;6.63;4.90;;;14.10;99.30;;;;;;5111269;28;20067;-69
2023/03/17 10:22:24;;;;;;;7.55;6.07;;;14.20;98.70;;;;;;5083600;28;20135;-69
2023/03/17 10:24:58;;;;;;;6.13;5.30;;;14.50;98.60;;;;;;5089512;28;20046;-69
2023/03/17 10:27:35;;;;;;;8.73;6.20;;;14.60;98.10;;;;;;5096456;28;20144;-69
2023/03/17 10:30:04;;;;;;;6.18;5.30;;;14.80;97.40;;;;;;5107021;28;20043;-69
2023/03/17 10:32:36;;;;;;;7.30;5.50;;;14.80;97.70;;;;;;5092655;28;20444;-69
2023/03/17 10:35:04;;;;;;;5.88;5.03;;;15.00;96.90;;;;;;5099833;28;20569;-69
2023/03/17 10:37:35;;;;;;;6.00;4.55;;;14.80;95.90;;;;;;5092057;28;20561;-70
2023/03/17 10:40:09;;;;;;;10.23;5.95;;;14.80;96.70;;;;;;5091042;28;20083;-68
2023/03/17 10:42:51;;;;;;;9.32;6.70;;;15.00;96.90;;;;;;5096059;28;20584;-69
2023/03/17 10:45:45;;;;;;;8.20;6.03;;;15.10;96.10;;;;;;5093474;28;20067;-69
2023/03/17 10:48:18;;;;;;;7.63;5.97;;;15.40;95.60;;;;;;5072800;28;20054;-69
2023/03/17 10:50:45;;;;;;;5.97;5.07;;;15.70;95.80;;;;;;5092759;28;20051;-68
2023/03/17 10:53:29;;;;;;;6.13;5.30;;;16.00;95.20;;;;;;5093759;28;20498;-68
2023/03/17 10:56:08;;;;;;;7.63;5.60;;;16.20;94.30;;;;;;5109958;28;20106;-68
2023/03/17 10:58:44;;;;;;;7.03;4.72;;;16.40;93.90;;;;;;5101735;28;20040;-67
2023/03/17 11:01:18;;;;;;;11.30;7.88;;;16.30;93.10;;;;;;5106519;28;20085;-69
2023/03/17 11:03:47;;;;;;;6.53;4.80;;;16.30;93.20;;;;;;5100601;28;20401;-69
2023/03/17 11:06:17;;;;;;;5.20;4.10;;;16.40;92.90;;;;;;5111011;28;20067;-69
2023/03/17 11:08:53;;;;;;;11.23;4.63;;;16.60;93.00;;;;;;5113204;28;20039;-70
2023/03/17 11:11:28;;;;;;;8.15;4.38;;;16.90;92.80;;;;;;5105480;28;20150;-70
2023/03/17 11:14:04;;;;;;;5.80;3.85;;;17.10;92.40;;;;;;5089529;28;20047;-71
2023/03/17 11:16:36;;;;;;;6.10;4.57;;;17.30;91.90;;;;;;5089319;28;20070;-68
2023/03/17 11:19:06;;;;;;;4.93;4.30;;;17.50;90.90;;;;;;5097957;28;20048;-70
2023/03/17 11:22:03;;;;;;;7.32;4.35;;;17.70;90.60;;;;;;5104551;28;20067;-70
2023/03/17 11:24:35;;;;;;;7.25;3.97;;;18.20;90.50;;;;;;5101880;28;20160;-69
2023/03/17 11:27:34;;;;;;;5.32;3.83;;;18.50;90.40;;;;;;5098523;28;20144;-69
2023/03/17 11:30:23;;;;;;;6.00;4.20;;;19.10;87.90;;;;;;5105739;28;20101;-69
2023/03/17 11:33:01;;;;;;;4.82;4.30;;;19.50;86.10;;;;;;5096683;28;20048;-70
2023/03/17 11:35:42;;;;;;;4.80;4.15;;;19.90;83.80;;;;;;5099741;28;20060;-69
2023/03/17 11:38:25;;;;;;;5.35;4.35;;;19.90;82.80;;;;;;5084609;28;20087;-68
2023/03/17 11:41:20;;;;;;;6.40;4.13;;;19.90;82.40;;;;;;5092730;28;20135;-70
2023/03/17 11:43:51;;;;;;;4.55;4.05;;;20.00;81.30;;;;;;5076361;28;20132;-70
2023/03/17 11:46:28;;;;;;;4.75;4.00;;;20.00;80.80;;;;;;5108527;28;20048;-70
2023/03/17 11:49:13;;;;;;;4.75;3.97;;;20.40;80.80;;;;;;5091827;28;20096;-70
2023/03/17 11:51:58;;;;;;;6.00;4.45;;;20.90;79.00;;;;;;5105741;28;20071;-70
2023/03/17 11:54:34;;;;;;;4.80;4.30;;;21.20;75.40;;;;;;5092359;28;20387;-67
2023/03/17 11:57:09;;;;;;;4.90;4.40;;;21.00;75.20;;;;;;5081506;28;20084;-67
2023/03/17 11:59:50;;;;;;;4.40;4.00;;;20.80;73.70;;;;;;5094010;28;20055;-70
2023/03/17 12:02:24;;;;;;;4.53;4.07;;;20.70;72.90;;;;;;5096618;28;20123;-67
2023/03/17 12:04:57;;;;;;;11.55;4.60;;;20.70;72.40;;;;;;5103954;28;20068;-67
2023/03/17 12:07:32;;;;;;;4.65;4.25;;;20.70;73.40;;;;;;5112456;28;20047;-69
2023/03/17 12:10:03;;;;;;;4.80;4.07;;;20.80;72.70;;;;;;5089327;28;20043;-69
2023/03/17 12:12:38;;;;;;;4.65;3.88;;;21.10;73.60;;;;;;5109777;28;20043;-70
2023/03/17 12:15:31;;;;;;;4.57;4.07;;;21.40;73.00;;;;;;5110681;28;20765;-68
2023/03/17 12:18:05;;;;;;;4.60;4.18;;;21.40;71.60;;;;;;5094962;28;20075;-64
2023/03/17 12:21:00;;;;;;;7.30;4.20;;;21.60;71.10;;;;;;5109868;28;20043;-63
2023/03/17 12:23:32;;;;;;;10.48;5.97;;;21.80;71.10;;;;;;5091888;28;20452;-66
2023/03/17 12:26:12;;;;;;;5.05;4.55;;;22.20;69.30;;;;;;5105970;28;20448;-64
2023/03/17 12:28:55;;;;;;;5.72;4.15;;;22.40;68.70;;;;;;5101828;28;20133;-64
2023/03/17 12:31:35;;;;;;;4.47;4.07;;;22.60;67.50;;;;;;5102408;28;20447;-65
2023/03/17 12:34:10;;;;;;;4.95;4.18;;;23.20;66.80;;;;;;5094559;28;20572;-65
2023/03/17 12:36:38;;;;;;;8.45;4.10;;;23.70;68.50;;;;;;5095227;28;20078;-65
2023/03/17 12:39:10;;;;;;;4.40;4.00;;;24.30;65.10;;;;;;5104682;28;20470;-64
2023/03/17 12:41:58;;;;;;;6.22;4.10;;;24.60;63.40;;;;;;5110978;28;20312;-64
2023/03/17 12:44:41;;;;;;;5.63;3.90;;;24.80;62.50;;;;;;5095082;28;20126;-64
2023/03/17 12:47:17;;;;;;;5.07;4.30;;;24.90;61.20;;;;;;5109180;28;20040;-66
2023/03/17 12:50:09;;;;;;;6.75;4.30;;;24.50;61.10;;;;;;5101729;28;20573;-66
2023/03/17 12:53:02;;;;;;;4.15;3.75;;;23.90;61.30;;;;;;5094742;28;20063;-64
2023/03/17 12:55:32;;;;;;;5.28;3.83;;;23.80;60.90;;;;;;5102936;28;20052;-63
2023/03/17 12:58:21;;;;;;;5.63;4.15;;;24.30;63.30;;;;;;5079162;28;20043;-63
2023/03/17 13:01:19;;;;;;;4.70;4.20;;;24.80;60.10;;;;;;5111357;28;20047;-69
2023/03/17 13:03:59;;;;;;;5.10;4.40;;;25.70;59.20;;;;;;5075193;28;20043;-68
2023/03/17 13:06:38;;;;;;;5.35;4.22;;;27.00;59.30;;;;;;5099853;28;20483;-64
2023/03/17 13:09:27;;;;;;;5.40;4.40;;;28.90;56.60;;;;;;5092053;28;20042;-65
2023/03/17 13:12:00;;;;;;;4.50;4.10;;;28.80;54.30;;;;;;5091719;28;20079;-64
2023/03/17 13:14:46;;;;;;;4.20;3.83;;;28.70;53.10;;;;;;5094373;28;20536;-66